Terminal Aerodrome Forecast
Issued by NWS

Home | Current Version | Previous Version | Text Only | Print | Product List | Glossary On
Versions: 1 2 3 4 5 6 7 8 9 10 11 12 13 14 15 16 17 18 19 20 21 22 23
000
FTUS41 KBTV 241126
TAFPBG
TAF
KPBG 241126Z 2412/2512 21010KT P6SM SCT120
     FM241600 25015G25KT P6SM SCT120
     FM250000 21007KT P6SM SCT250
     FM250800 21005KT P6SM BKN150
     FM251100 21004KT P6SM VCSH SCT050 OVC100=

USA.gov is the U.S. government's official web portal to all federal, state and local government web resources and services.